createdAt,value
2022-12-22T00:02:21.652Z,6.58
2022-12-22T00:04:49.217Z,6.54
2022-12-22T00:07:15.664Z,6.51
2022-12-22T00:09:42.133Z,6.48
2022-12-22T00:12:11.412Z,6.46
2022-12-22T00:14:38.052Z,6.44
2022-12-22T00:17:26.933Z,6.42
2022-12-22T00:19:53.414Z,6.43
2022-12-22T00:22:24.954Z,6.41
2022-12-22T00:24:51.552Z,6.42
2022-12-22T00:27:29.434Z,6.42
2022-12-22T00:29:55.934Z,6.43
2022-12-22T00:32:23.445Z,6.45
2022-12-22T00:34:51.066Z,6.45
2022-12-22T00:37:20.648Z,6.44
2022-12-22T00:39:47.316Z,6.46
2022-12-22T00:42:13.804Z,6.46
2022-12-22T00:44:40.440Z,6.46
2022-12-22T00:47:13.965Z,6.44
2022-12-22T00:49:44.826Z,6.43
2022-12-22T00:52:12.083Z,6.42
2022-12-22T00:54:38.691Z,6.41
2022-12-22T00:57:05.604Z,6.42
2022-12-22T00:59:32.675Z,6.41
2022-12-22T01:01:59.432Z,6.41
2022-12-22T01:04:26.171Z,6.42
2022-12-22T01:06:52.656Z,6.41
2022-12-22T01:09:19.211Z,6.41
2022-12-22T01:11:45.851Z,6.43
2022-12-22T01:14:13.829Z,6.42
2022-12-22T01:16:40.415Z,6.42
2022-12-22T01:19:06.964Z,6.43
2022-12-22T01:21:33.634Z,6.43
2022-12-22T01:24:00.174Z,6.43
2022-12-22T01:26:27.255Z,6.44
2022-12-22T01:28:53.735Z,6.45
2022-12-22T01:31:29.723Z,6.43
2022-12-22T01:33:56.256Z,6.46
2022-12-22T01:36:24.099Z,6.47
2022-12-22T01:38:50.935Z,6.48
2022-12-22T01:41:21.222Z,6.47
2022-12-22T01:43:48.018Z,6.51
2022-12-22T01:46:29.733Z,6.51
2022-12-22T01:48:56.391Z,6.51
2022-12-22T01:51:27.891Z,6.52
2022-12-22T01:53:55.105Z,6.54
2022-12-22T01:56:21.948Z,6.57
2022-12-22T01:58:53.389Z,6.58
2022-12-22T02:01:19.950Z,6.60
2022-12-22T02:03:46.591Z,6.62
2022-12-22T02:06:30.995Z,6.62
2022-12-22T02:09:11.144Z,6.63
2022-12-22T02:12:05.247Z,6.62
2022-12-22T02:14:50.247Z,6.63
2022-12-22T02:17:19.265Z,6.64
2022-12-22T02:19:54.664Z,6.62
2022-12-22T02:22:35.508Z,6.61
2022-12-22T02:25:17.054Z,6.60
2022-12-22T02:27:45.544Z,6.61
2022-12-22T02:30:13.088Z,6.60
2022-12-22T02:32:42.658Z,6.59
2022-12-22T02:35:17.046Z,6.58
2022-12-22T02:38:02.763Z,6.57
2022-12-22T02:40:54.140Z,6.57
2022-12-22T02:43:38.733Z,6.58
2022-12-22T02:46:21.541Z,6.60
2022-12-22T02:49:17.708Z,6.58
2022-12-22T02:51:49.352Z,6.61
2022-12-22T02:54:17.564Z,6.62
2022-12-22T02:56:44.575Z,6.63
2022-12-22T02:59:11.074Z,6.64
2022-12-22T03:01:40.425Z,6.66
2022-12-22T03:04:07.053Z,6.68
2022-12-22T03:06:33.959Z,6.71
2022-12-22T03:09:00.537Z,6.73
2022-12-22T03:11:26.988Z,6.76
2022-12-22T03:13:53.513Z,6.76
2022-12-22T03:16:20.081Z,6.78
2022-12-22T03:18:46.646Z,6.79
2022-12-22T03:21:13.371Z,6.81
2022-12-22T03:23:40.282Z,6.83
2022-12-22T03:26:06.878Z,6.86
2022-12-22T03:28:33.420Z,6.88
2022-12-22T03:31:04.665Z,6.94
2022-12-22T03:33:32.533Z,6.98
2022-12-22T03:35:59.894Z,7.02
2022-12-22T03:38:26.677Z,7.08
2022-12-22T03:40:53.149Z,7.15
2022-12-22T03:43:20.011Z,7.23
2022-12-22T03:45:46.568Z,7.29
2022-12-22T03:48:13.238Z,7.36
2022-12-22T03:50:39.766Z,7.41
2022-12-22T03:53:06.251Z,7.48
2022-12-22T03:55:32.916Z,7.54
2022-12-22T03:57:59.383Z,7.61
2022-12-22T04:00:25.974Z,7.69
2022-12-22T04:02:52.572Z,7.75
2022-12-22T04:05:19.214Z,7.82
2022-12-22T04:07:45.812Z,7.88
2022-12-22T04:10:12.489Z,7.94
2022-12-22T04:12:39.087Z,7.98
2022-12-22T04:15:06.284Z,8.03
2022-12-22T04:17:32.745Z,8.06
2022-12-22T04:19:59.263Z,8.08
2022-12-22T04:22:25.856Z,8.11
2022-12-22T04:24:52.506Z,8.12
2022-12-22T04:27:18.989Z,8.14
2022-12-22T04:29:45.609Z,8.15
2022-12-22T04:32:12.218Z,8.16
2022-12-22T04:34:38.767Z,8.18
2022-12-22T04:37:16.488Z,8.20
2022-12-22T04:39:44.008Z,8.20
2022-12-22T04:42:10.580Z,8.22
2022-12-22T04:44:37.048Z,8.23
2022-12-22T04:47:03.616Z,8.24
2022-12-22T04:49:30.263Z,8.25
2022-12-22T04:51:56.892Z,8.25
2022-12-22T04:54:23.421Z,8.26
2022-12-22T04:56:50.594Z,8.27
2022-12-22T04:59:17.114Z,8.27
2022-12-22T05:01:43.862Z,8.28
2022-12-22T05:04:10.508Z,8.28
2022-12-22T05:06:37.017Z,8.28
2022-12-22T05:09:03.623Z,8.29
2022-12-22T05:11:30.150Z,8.29
2022-12-22T05:13:59.679Z,8.28
2022-12-22T05:16:28.688Z,8.29
2022-12-22T05:18:55.140Z,8.30
2022-12-22T05:21:23.283Z,8.31
2022-12-22T05:23:50.975Z,8.30
2022-12-22T05:26:18.832Z,8.29
2022-12-22T05:28:46.668Z,8.31
2022-12-22T05:31:23.146Z,8.32
2022-12-22T05:33:50.405Z,8.31
2022-12-22T05:36:17.080Z,8.32
2022-12-22T05:38:44.008Z,8.31
2022-12-22T05:41:10.938Z,8.29
2022-12-22T05:43:37.900Z,8.26
2022-12-22T05:46:06.650Z,8.26
2022-12-22T05:48:37.881Z,8.25
2022-12-22T05:51:05.862Z,8.23
2022-12-22T05:53:32.309Z,8.22
2022-12-22T05:55:58.831Z,8.18
2022-12-22T05:58:25.531Z,8.17
2022-12-22T06:00:52.098Z,8.13
2022-12-22T06:03:18.676Z,8.10
2022-12-22T06:05:45.329Z,8.07
2022-12-22T06:08:11.776Z,8.03
2022-12-22T06:10:38.285Z,8.01
2022-12-22T06:13:04.844Z,7.97
2022-12-22T06:15:31.341Z,7.94
2022-12-22T06:17:58.746Z,7.92
2022-12-22T06:20:25.407Z,7.89
2022-12-22T06:22:51.907Z,7.84
2022-12-22T06:25:19.053Z,7.82
2022-12-22T06:27:47.521Z,7.82
2022-12-22T06:30:15.824Z,7.81
2022-12-22T06:32:42.573Z,7.81
2022-12-22T06:35:10.068Z,7.81
2022-12-22T06:37:36.616Z,7.80
2022-12-22T06:40:03.983Z,7.78
2022-12-22T06:42:30.494Z,7.77
2022-12-22T06:44:57.000Z,7.76
2022-12-22T06:47:23.597Z,7.73
2022-12-22T06:49:50.088Z,7.70
2022-12-22T06:52:16.625Z,7.69
2022-12-22T06:54:43.151Z,7.67
2022-12-22T06:57:09.693Z,7.66
2022-12-22T06:59:36.155Z,7.63
2022-12-22T07:02:02.800Z,7.63
2022-12-22T07:04:29.328Z,7.64
2022-12-22T07:06:55.801Z,7.63
2022-12-22T07:09:22.250Z,7.63
2022-12-22T07:11:48.851Z,7.65
2022-12-22T07:14:15.416Z,7.65
2022-12-22T07:16:41.990Z,7.65
2022-12-22T07:19:08.605Z,7.69
2022-12-22T07:21:35.078Z,7.74
2022-12-22T07:24:01.711Z,7.77
2022-12-22T07:26:31.372Z,7.82
2022-12-22T07:28:57.975Z,7.89
2022-12-22T07:31:24.716Z,7.94
2022-12-22T07:33:52.552Z,7.99
2022-12-22T07:36:20.520Z,8.02
2022-12-22T07:38:49.768Z,8.05
2022-12-22T07:41:17.973Z,8.09
2022-12-22T07:43:44.384Z,8.03
2022-12-22T07:46:10.932Z,8.10
2022-12-22T07:48:37.636Z,8.13
2022-12-22T07:51:06.266Z,8.13
2022-12-22T07:53:34.316Z,8.13
2022-12-22T07:56:05.497Z,8.10
2022-12-22T07:58:32.057Z,8.10
2022-12-22T08:01:00.167Z,8.10
2022-12-22T08:03:26.753Z,8.08
2022-12-22T08:05:53.273Z,8.08
2022-12-22T08:08:19.768Z,8.07
2022-12-22T08:10:46.230Z,8.07
2022-12-22T08:13:12.872Z,8.07
2022-12-22T08:15:39.410Z,8.05
2022-12-22T08:18:06.007Z,8.05
2022-12-22T08:20:32.602Z,8.05
2022-12-22T08:22:59.156Z,8.05
2022-12-22T08:25:25.904Z,8.05
2022-12-22T08:27:55.598Z,8.04
2022-12-22T08:30:22.174Z,8.05
2022-12-22T08:32:51.004Z,8.10
2022-12-22T08:35:18.156Z,8.14
2022-12-22T08:37:46.432Z,8.19
2022-12-22T08:40:19.316Z,8.25
2022-12-22T08:42:47.187Z,8.32
2022-12-22T08:45:13.862Z,8.38
2022-12-22T08:47:40.580Z,8.46
2022-12-22T08:50:07.858Z,8.56
2022-12-22T08:52:34.382Z,8.65
2022-12-22T08:55:01.080Z,8.73
2022-12-22T08:57:27.682Z,8.83
2022-12-22T08:59:54.278Z,8.94
2022-12-22T09:02:20.888Z,9.05
2022-12-22T09:04:47.501Z,9.17
2022-12-22T09:07:14.100Z,9.26
2022-12-22T09:09:40.678Z,9.39
2022-12-22T09:12:07.607Z,9.49
2022-12-22T09:14:34.137Z,9.58
2022-12-22T09:17:00.861Z,9.68
2022-12-22T09:19:27.487Z,9.76
2022-12-22T09:21:55.167Z,9.84
2022-12-22T09:24:21.698Z,9.91
2022-12-22T09:26:48.192Z,9.99
2022-12-22T09:29:14.696Z,10.07
2022-12-22T09:31:41.784Z,10.14
2022-12-22T09:34:11.973Z,10.20
2022-12-22T09:36:43.476Z,10.28
2022-12-22T09:39:10.199Z,10.34
2022-12-22T09:41:57.407Z,10.41
2022-12-22T09:44:34.514Z,10.52
2022-12-22T09:47:04.744Z,10.56
2022-12-22T09:49:31.475Z,10.63
2022-12-22T09:52:02.876Z,10.67
2022-12-22T09:54:30.598Z,10.73
2022-12-22T09:56:57.840Z,10.81
2022-12-22T09:59:27.416Z,10.82
2022-12-22T10:02:05.328Z,10.87
2022-12-22T10:04:39.155Z,10.81
2022-12-22T10:07:37.003Z,10.95
2022-12-22T10:10:13.130Z,10.99
2022-12-22T10:12:39.616Z,11.08
2022-12-22T10:15:11.752Z,11.13
2022-12-22T10:17:40.781Z,11.22
2022-12-22T10:20:21.236Z,11.29
2022-12-22T10:22:57.094Z,11.42
2022-12-22T10:25:35.785Z,11.49
2022-12-22T10:28:20.662Z,11.58
2022-12-22T10:30:47.351Z,11.67
2022-12-22T10:33:18.607Z,11.73
2022-12-22T10:35:52.989Z,11.79
2022-12-22T10:38:24.127Z,11.84
2022-12-22T10:41:00.149Z,11.88
2022-12-22T10:43:38.675Z,11.91
2022-12-22T10:46:05.976Z,11.97
2022-12-22T10:48:35.754Z,12.00
2022-12-22T10:51:05.448Z,12.04
2022-12-22T10:53:57.876Z,12.05
2022-12-22T10:56:24.308Z,12.10
2022-12-22T10:59:04.748Z,12.10
2022-12-22T11:01:36.269Z,12.12
2022-12-22T11:04:26.845Z,12.11
2022-12-22T11:06:55.568Z,12.12
2022-12-22T11:09:33.917Z,12.15
2022-12-22T11:12:47.281Z,12.11
2022-12-22T11:15:37.056Z,12.11
2022-12-22T11:18:06.561Z,12.14
2022-12-22T11:20:51.640Z,12.14
2022-12-22T11:23:32.273Z,12.15
2022-12-22T11:25:58.770Z,12.16
2022-12-22T11:28:59.536Z,12.16
2022-12-22T11:31:49.835Z,12.16
2022-12-22T11:34:40.826Z,12.13
2022-12-22T11:37:19.716Z,12.05
2022-12-22T11:39:59.312Z,12.04
2022-12-22T11:43:00.075Z,11.94
2022-12-22T11:45:46.497Z,11.84
2022-12-22T11:48:24.738Z,11.72
2022-12-22T11:51:01.080Z,11.63
2022-12-22T11:53:55.909Z,11.49
2022-12-22T11:56:33.082Z,11.41
2022-12-22T11:59:18.468Z,11.34
2022-12-22T12:02:15.507Z,11.20
2022-12-22T12:05:23.337Z,11.08
2022-12-22T12:08:10.172Z,11.00
2022-12-22T12:10:45.692Z,10.95
2022-12-22T12:13:30.099Z,10.94
2022-12-22T12:16:08.631Z,10.89
2022-12-22T12:19:01.390Z,10.87
2022-12-22T12:21:29.783Z,10.89
2022-12-22T12:24:04.485Z,10.92
2022-12-22T12:26:36.983Z,10.93
2022-12-22T12:29:17.345Z,10.98
2022-12-22T12:32:00.609Z,11.03
2022-12-22T12:34:31.398Z,11.08
2022-12-22T12:37:07.916Z,11.13
2022-12-22T12:39:42.194Z,11.15
2022-12-22T12:42:17.997Z,11.15
2022-12-22T12:44:45.712Z,11.18
2022-12-22T12:47:26.054Z,11.22
2022-12-22T12:49:59.326Z,11.27
2022-12-22T12:52:41.246Z,11.33
2022-12-22T12:55:33.382Z,11.36
2022-12-22T12:58:02.939Z,11.43
2022-12-22T13:00:35.589Z,11.45
2022-12-22T13:03:04.953Z,11.49
2022-12-22T13:05:53.091Z,11.49
2022-12-22T13:08:32.235Z,11.44
2022-12-22T13:10:58.710Z,11.40
2022-12-22T13:13:25.157Z,11.41
2022-12-22T13:16:00.695Z,11.41
2022-12-22T13:18:27.231Z,11.42
2022-12-22T13:21:50.312Z,11.43
2022-12-22T13:24:29.163Z,11.44
2022-12-22T13:27:02.057Z,11.51
2022-12-22T13:29:47.206Z,11.53
2022-12-22T13:32:25.239Z,11.56
2022-12-22T13:35:30.385Z,11.64
2022-12-22T13:37:50.562Z,11.69
2022-12-22T13:40:22.411Z,11.77
2022-12-22T13:42:56.038Z,11.75
2022-12-22T13:45:37.181Z,11.87
2022-12-22T13:48:29.268Z,11.97
2022-12-22T13:51:00.516Z,12.02
2022-12-22T13:56:34.266Z,12.00
2022-12-22T13:59:02.564Z,12.08
2022-12-22T14:01:29.421Z,12.14
2022-12-22T14:04:01.701Z,12.14
2022-12-22T14:06:35.428Z,12.19
2022-12-22T14:09:26.433Z,12.20
2022-12-22T14:12:02.126Z,12.24
2022-12-22T14:14:34.996Z,12.29
2022-12-22T14:17:02.622Z,12.30
2022-12-22T14:19:33.989Z,12.27
2022-12-22T14:22:11.603Z,12.33
2022-12-22T14:24:44.453Z,12.38
2022-12-22T14:27:29.067Z,12.39
2022-12-22T14:29:57.532Z,12.36
2022-12-22T14:32:42.405Z,12.39
2022-12-22T14:35:37.887Z,12.41
2022-12-22T14:38:13.284Z,12.42
2022-12-22T14:40:42.064Z,12.42
2022-12-22T14:43:17.776Z,12.44
2022-12-22T14:45:49.227Z,12.43
2022-12-22T14:48:38.154Z,12.45
2022-12-22T14:51:05.369Z,12.50
2022-12-22T14:53:45.248Z,12.51
2022-12-22T14:56:13.728Z,12.52
2022-12-22T14:58:42.803Z,12.51
2022-12-22T15:01:23.064Z,12.48
2022-12-22T15:04:27.123Z,12.48
2022-12-22T15:07:37.289Z,12.47
2022-12-22T15:10:15.163Z,12.49
2022-12-22T15:12:43.439Z,12.48
2022-12-22T15:15:28.332Z,12.46
2022-12-22T15:17:55.000Z,12.47
2022-12-22T15:20:26.975Z,12.46
2022-12-22T15:22:54.078Z,12.46
2022-12-22T15:25:22.994Z,12.47
2022-12-22T15:27:50.384Z,12.45
2022-12-22T15:30:26.544Z,12.44
2022-12-22T15:32:54.858Z,12.40
2022-12-22T15:35:28.152Z,12.38
2022-12-22T15:37:54.723Z,12.35
2022-12-22T15:40:22.791Z,12.35
2022-12-22T15:42:49.898Z,12.24
2022-12-22T15:45:18.011Z,12.29
2022-12-22T15:47:48.730Z,12.30
2022-12-22T15:50:19.639Z,12.31
2022-12-22T15:52:51.327Z,12.28
2022-12-22T15:55:19.515Z,12.30
2022-12-22T15:57:46.738Z,12.19
2022-12-22T16:00:15.633Z,12.24
2022-12-22T16:02:42.387Z,12.25
2022-12-22T16:05:10.252Z,12.30
2022-12-22T16:07:37.800Z,12.26
2022-12-22T16:10:06.878Z,12.28
2022-12-22T16:12:33.508Z,12.30
2022-12-22T16:15:01.382Z,12.32
2022-12-22T16:17:29.255Z,12.31
2022-12-22T16:19:55.807Z,12.31
2022-12-22T16:22:32.097Z,12.32
2022-12-22T16:24:59.012Z,12.33
2022-12-22T16:27:25.714Z,12.32
2022-12-22T16:29:54.143Z,12.31
2022-12-22T16:32:28.935Z,12.31
2022-12-22T16:35:12.871Z,12.39
2022-12-22T16:37:39.392Z,12.33
2022-12-22T16:40:06.743Z,12.31
2022-12-22T16:45:21.228Z,12.30
2022-12-22T16:47:51.671Z,12.31
2022-12-22T16:50:21.464Z,12.29
2022-12-22T16:52:49.494Z,12.26
2022-12-22T16:55:18.187Z,12.30
2022-12-22T16:57:45.261Z,12.26
2022-12-22T17:00:18.130Z,12.25
2022-12-22T17:02:48.969Z,12.26
2022-12-22T17:05:44.059Z,12.22
2022-12-22T17:08:29.752Z,12.29
2022-12-22T17:11:02.128Z,12.25
2022-12-22T17:13:32.867Z,12.30
2022-12-22T17:16:02.357Z,12.33
2022-12-22T17:18:31.057Z,12.31
2022-12-22T17:21:00.113Z,12.30
2022-12-22T17:23:32.075Z,12.27
2022-12-22T17:26:00.822Z,12.29
2022-12-22T17:28:27.925Z,12.29
2022-12-22T17:30:54.764Z,12.25
2022-12-22T17:33:21.652Z,12.23
2022-12-22T17:35:48.632Z,12.22
2022-12-22T17:38:18.140Z,12.20
2022-12-22T17:40:45.637Z,12.19
2022-12-22T17:43:14.079Z,12.18
2022-12-22T17:45:42.142Z,12.19
2022-12-22T17:48:08.870Z,12.20
2022-12-22T17:50:36.077Z,12.20
2022-12-22T17:53:03.829Z,12.16
2022-12-22T17:58:17.796Z,12.18
2022-12-22T18:00:44.574Z,12.16
2022-12-22T18:03:15.286Z,12.15
2022-12-22T18:05:45.998Z,12.12
2022-12-22T18:08:17.401Z,12.11
2022-12-22T18:10:44.589Z,12.10
2022-12-22T18:13:17.316Z,12.09
2022-12-22T18:15:43.868Z,12.09
2022-12-22T18:18:16.092Z,12.10
2022-12-22T18:20:43.762Z,12.06
2022-12-22T18:23:16.450Z,12.06
2022-12-22T18:25:43.189Z,12.06
2022-12-22T18:28:14.673Z,12.07
2022-12-22T18:30:41.832Z,12.06
2022-12-22T18:33:08.713Z,12.03
2022-12-22T18:35:36.130Z,12.04
2022-12-22T18:38:03.098Z,12.03
2022-12-22T18:40:37.407Z,12.02
2022-12-22T18:43:11.801Z,12.02
2022-12-22T18:45:38.515Z,12.00
2022-12-22T18:48:05.238Z,11.96
2022-12-22T18:50:33.692Z,11.96
2022-12-22T18:53:06.264Z,11.94
2022-12-22T18:55:33.340Z,11.91
2022-12-22T18:58:00.477Z,11.89
2022-12-22T19:00:30.323Z,11.86
2022-12-22T19:03:00.495Z,11.84
2022-12-22T19:05:29.897Z,11.80
2022-12-22T19:07:57.637Z,11.78
2022-12-22T19:10:33.753Z,11.71
2022-12-22T19:13:01.924Z,11.69
2022-12-22T19:15:32.663Z,11.55
2022-12-22T19:17:59.306Z,11.58
2022-12-22T19:20:25.958Z,11.54
2022-12-22T19:22:52.807Z,11.49
2022-12-22T19:25:23.172Z,11.43
2022-12-22T19:27:52.983Z,11.37
2022-12-22T19:30:22.579Z,11.32
2022-12-22T19:32:53.753Z,11.28
2022-12-22T19:35:22.508Z,11.21
2022-12-22T19:37:51.095Z,11.17
2022-12-22T19:40:19.662Z,11.08
2022-12-22T19:42:49.965Z,11.02
2022-12-22T19:45:21.957Z,10.95
2022-12-22T19:47:49.744Z,10.91
2022-12-22T19:50:16.276Z,10.86
2022-12-22T19:52:43.132Z,10.83
2022-12-22T19:55:10.144Z,10.81
2022-12-22T19:57:37.861Z,10.77
2022-12-22T20:00:04.842Z,10.72
2022-12-22T20:02:38.991Z,10.70
2022-12-22T20:05:20.040Z,10.68
2022-12-22T20:07:46.545Z,10.66
2022-12-22T20:10:13.256Z,10.64
2022-12-22T20:12:41.360Z,10.63
2022-12-22T20:15:15.940Z,10.55
2022-12-22T20:17:42.705Z,10.60
2022-12-22T20:20:18.631Z,10.59
2022-12-22T20:22:52.378Z,10.55
2022-12-22T20:25:22.287Z,10.57
2022-12-22T20:27:49.888Z,10.63
2022-12-22T20:30:28.602Z,10.61
2022-12-22T20:32:56.067Z,10.68
2022-12-22T20:35:23.833Z,10.70
2022-12-22T20:37:52.193Z,10.77
2022-12-22T20:40:27.911Z,10.81
2022-12-22T20:42:58.073Z,10.89
2022-12-22T20:45:27.627Z,10.97
2022-12-22T20:47:54.299Z,11.03
2022-12-22T20:50:27.976Z,11.12
2022-12-22T20:52:55.691Z,11.17
2022-12-22T20:55:27.318Z,11.24
2022-12-22T20:57:54.604Z,11.32
2022-12-22T21:00:27.200Z,11.38
2022-12-22T21:02:54.663Z,11.43
2022-12-22T21:05:21.914Z,11.48
2022-12-22T21:07:49.646Z,11.50
2022-12-22T21:10:22.845Z,11.55
2022-12-22T21:12:50.130Z,11.58
2022-12-22T21:15:18.916Z,11.61
2022-12-22T21:17:46.765Z,11.62
2022-12-22T21:20:19.970Z,11.61
2022-12-22T21:22:46.988Z,11.66
2022-12-22T21:25:14.514Z,11.68
2022-12-22T21:27:47.098Z,11.65
2022-12-22T21:30:22.546Z,11.67
2022-12-22T21:32:50.204Z,11.69
2022-12-22T21:35:27.404Z,11.72
2022-12-22T21:37:57.120Z,11.73
2022-12-22T21:40:26.634Z,11.72
2022-12-22T21:42:54.344Z,11.76
2022-12-22T21:45:23.655Z,11.78
2022-12-22T21:47:50.254Z,11.79
2022-12-22T21:50:25.175Z,11.78
2022-12-22T21:52:52.733Z,11.78
2022-12-22T21:55:26.949Z,11.77
2022-12-22T21:57:53.849Z,11.78
2022-12-22T22:00:21.974Z,11.77
2022-12-22T22:02:48.732Z,11.68
2022-12-22T22:05:31.413Z,11.73
2022-12-22T22:07:59.102Z,11.73
2022-12-22T22:10:28.397Z,11.73
2022-12-22T22:12:55.714Z,11.73
2022-12-22T22:15:24.692Z,11.69
2022-12-22T22:17:51.381Z,11.71
2022-12-22T22:20:20.870Z,11.69
2022-12-22T22:22:49.105Z,11.67
2022-12-22T22:25:17.080Z,11.67
2022-12-22T22:27:47.957Z,11.64
2022-12-22T22:30:19.565Z,11.60
2022-12-22T22:32:47.040Z,11.57
2022-12-22T22:35:14.591Z,11.55
2022-12-22T22:37:41.217Z,11.50
2022-12-22T22:40:09.741Z,11.44
2022-12-22T22:42:37.398Z,11.40
2022-12-22T22:45:05.668Z,11.36
2022-12-22T22:47:32.296Z,11.33
2022-12-22T22:49:58.888Z,11.30
2022-12-22T22:52:25.580Z,11.27
2022-12-22T22:54:52.180Z,11.24
2022-12-22T22:57:18.816Z,11.22
2022-12-22T22:59:45.570Z,11.19
2022-12-22T23:02:14.198Z,11.15
2022-12-22T23:04:40.869Z,11.13
2022-12-22T23:07:07.528Z,11.10
2022-12-22T23:09:34.611Z,11.08
2022-12-22T23:12:01.165Z,11.05
2022-12-22T23:14:27.744Z,11.03
2022-12-22T23:16:54.597Z,10.99
2022-12-22T23:19:21.275Z,10.97
2022-12-22T23:21:47.787Z,10.94
2022-12-22T23:24:16.346Z,10.92
2022-12-22T23:26:42.959Z,10.89
2022-12-22T23:29:09.446Z,10.88
2022-12-22T23:31:36.613Z,10.87
2022-12-22T23:34:04.211Z,10.83
2022-12-22T23:36:31.503Z,10.82
2022-12-22T23:38:58.076Z,10.79
2022-12-22T23:41:24.676Z,10.77
2022-12-22T23:43:52.805Z,10.76
2022-12-22T23:46:19.312Z,10.66
2022-12-22T23:48:50.688Z,10.73
2022-12-22T23:51:17.244Z,10.73
2022-12-22T23:53:43.728Z,10.72
2022-12-22T23:56:10.213Z,10.71
2022-12-22T23:58:36.705Z,10.70
